Carnival Miracle — H3VS — position and weather

sailwx.info

Track history (hours):
 
Tides and Currents Weather Stations Pressure Air Temp Water Temp Dewpoint Dewpoint Depression Visibility Wind Speed Wind Dir Waves Ship Positions

Carnival Miracle

Operator: Carnival Cruise Lines

Last reported at 2018-Dec-10 12:00 UTC. Time now 2018-Dec-13 13:07 UTC.
Position N 12°30' W 070°18'.

Type: Ship. MMSI: 35437000.

Wind from 100 at 20 knots

Barometer 1014.8 mb
Air temperature 27.0 ° C
Dewpoint 24.3 ° C
Water temperature 24.0 ° C

Date/timePositionNaut miles runAvg speedWind from/ knotsBaromVisibWave heightAir tempDewpointWater temp
2018-Dec-10 12:00N 12°30' W 070°18'16010.0 100 / 201014.8 27.024.324.0
2018-Dec-09 20:00N 12°06' W 073°00'12211.0 060 / 251010.4 27.022.826.0
2018-Dec-09 09:00N 11°18' W 074°54'309 8.9 040 / 321012.2 24.019.625.0
2018-Dec-07 22:13N 09°33' W 079°49'416.6
2018-Dec-07 21:58N 09°30' W 079°52'715.0
2018-Dec-07 21:30N 09°24' W 079°55'5 9.6
2018-Dec-07 21:00N 09°19' W 079°55'2 4.1
2018-Dec-07 20:28N 09°17' W 079°55'0 0.4
2018-Dec-07 19:58N 09°16' W 079°55'0 0.3
2018-Dec-07 19:21N 09°16' W 079°55'0 0.5
2018-Dec-07 18:54N 09°16' W 079°55'0 0.2
2018-Dec-07 18:30N 09°16' W 079°55'1 1.7
2018-Dec-07 17:59N 09°15' W 079°55'0 0.0
2018-Dec-07 17:11N 09°15' W 079°55'0 0.2
2018-Dec-07 16:59N 09°15' W 079°55'0 0.1
2018-Dec-07 16:29N 09°15' W 079°55'0 0.9
2018-Dec-07 15:59N 09°16' W 079°55'1 1.2
2018-Dec-07 15:28N 09°16' W 079°55'0 0.4
2018-Dec-07 14:55N 09°16' W 079°55'0 0.4
2018-Dec-07 14:25N 09°17' W 079°55'0 0.4
2018-Dec-07 13:58N 09°17' W 079°55'0 0.9
2018-Dec-07 13:30N 09°17' W 079°55'1 1.7
2018-Dec-07 13:00N 09°18' W 079°55'3 5.6
2018-Dec-07 12:30N 09°21' W 079°55'3 6.2
2018-Dec-07 12:00N 09°24' W 079°55'611.2
2018-Dec-07 11:30N 09°29' W 079°57'611.6
2018-Dec-07 10:59N 09°32' W 080°03'612.1
2018-Dec-07 10:28N 09°33' W 080°09'4418.0
2018-Dec-07 08:00N 09°36' W 080°54'148 6.2 050 / 221011.7 24.019.625.0
2018-Dec-06 08:00N 11°30' W 082°30'42317.6 100 / 251012.9 25.020.724.0
2018-Dec-05 08:00N 18°18' W 084°24'19621.1 090 / 151015.0 25.020.726.0
2018-Dec-04 22:42N 20°23' W 087°04'418.3
2018-Dec-04 22:31N 20°26' W 087°02'4 8.0
2018-Dec-04 22:00N 20°29' W 086°59'0 0.0
2018-Dec-04 21:30N 20°29' W 086°59'0 0.0
2018-Dec-04 21:00N 20°29' W 086°59'0 0.0
2018-Dec-04 20:30N 20°29' W 086°59'0 0.0
2018-Dec-04 20:00N 20°29' W 086°59'0 0.0
2018-Dec-04 19:30N 20°29' W 086°59'0 0.0
2018-Dec-04 19:00N 20°29' W 086°59'0 0.0
2018-Dec-04 18:30N 20°29' W 086°59'0 0.0
2018-Dec-04 18:00N 20°29' W 086°59'0 0.0
2018-Dec-04 17:30N 20°29' W 086°59'0 0.0
2018-Dec-04 17:00N 20°29' W 086°59'0 0.0
2018-Dec-04 16:30N 20°29' W 086°59'0 0.0
2018-Dec-04 16:00N 20°29' W 086°59'0 0.0
2018-Dec-04 15:30N 20°29' W 086°59'0 0.0
2018-Dec-04 15:00N 20°29' W 086°59'0 0.0
2018-Dec-04 14:30N 20°29' W 086°59'0 0.0
2018-Dec-04 14:00N 20°29' W 086°59'0 0.0
2018-Dec-04 13:30N 20°29' W 086°59'0 0.0
2018-Dec-04 13:00N 20°29' W 086°59'0 0.1
2018-Dec-04 12:30N 20°29' W 086°59'2 3.6
2018-Dec-04 12:00N 20°30' W 086°59'4 8.9
2018-Dec-04 11:30N 20°34' W 086°57'3 6.4
2018-Dec-04 11:00N 20°36' W 086°54'2308.3 120 / 151014.5 5.4 26.023.222.0
2018-Dec-04 10:59N 20°38' W 086°54'31513.1
2018-Dec-03 11:00N 25°06' W 083°54'4522.5 150 / 201014.2 5.4 26.023.226.0
2018-Dec-03 09:00N 25°48' W 083°36'142 3.1 180 / 251013.5 25.022.226.0
2018-Dec-01 11:00N 23°48' W 085°00'22318.4 150 / 301012.5 5.4 36.018.822.0
2018-Nov-30 22:53N 20°34' W 086°58'410.2
2018-Nov-30 22:30N 20°30' W 086°59'1 2.6
2018-Nov-30 22:00N 20°29' W 086°59'0 0.0
2018-Nov-30 21:29N 20°29' W 086°59'0 0.0
2018-Nov-30 20:59N 20°29' W 086°59'0 0.0
2018-Nov-30 20:26N 20°29' W 086°59'0 0.0
2018-Nov-30 19:59N 20°29' W 086°59'0 0.0
2018-Nov-30 19:28N 20°29' W 086°59'0 0.0
2018-Nov-30 18:58N 20°29' W 086°59'0 0.0
2018-Nov-30 18:28N 20°29' W 086°59'0 0.0
2018-Nov-30 17:58N 20°29' W 086°59'0 0.0
2018-Nov-30 17:28N 20°29' W 086°59'0 0.0
2018-Nov-30 17:00N 20°29' W 086°59'0 0.0
2018-Nov-30 16:30N 20°29' W 086°59'0 0.0
2018-Nov-30 16:00N 20°29' W 086°59'0 0.0
2018-Nov-30 15:30N 20°29' W 086°59'0 0.0
2018-Nov-30 15:00N 20°29' W 086°59'0 0.0
2018-Nov-30 14:29N 20°29' W 086°59'0 0.0
2018-Nov-30 13:59N 20°29' W 086°59'0 0.0
2018-Nov-30 13:29N 20°29' W 086°59'0 0.0
2018-Nov-30 12:59N 20°29' W 086°59'0 0.1
2018-Nov-30 12:30N 20°29' W 086°59'2 4.5
2018-Nov-30 12:00N 20°30' W 087°01'  
Track history (hours):
 
Tides and Currents Weather Stations Pressure Air Temp Water Temp Dewpoint Dewpoint Depression Visibility Wind Speed Wind Dir Waves Ship Positions

Carnival Miracle

Operator: Carnival Cruise Lines

Last reported at 2018-Dec-10 12:00 UTC. Time now 2018-Dec-13 13:07 UTC.
Position N 12°30' W 070°18'.

Type: Ship. MMSI: 35437000.

Wind from 100 at 20 knots

Barometer 1014.8 mb
Air temperature 27.0 ° C
Dewpoint 24.3 ° C
Water temperature 24.0 ° C

Date/timePositionNaut miles runAvg speedWind from/ knotsBaromVisibWave heightAir tempDewpointWater temp
2018-Dec-10 12:00N 12°30' W 070°18'16010.0 100 / 201014.8 27.024.324.0
2018-Dec-09 20:00N 12°06' W 073°00'12211.0 060 / 251010.4 27.022.826.0
2018-Dec-09 09:00N 11°18' W 074°54'309 8.9 040 / 321012.2 24.019.625.0
2018-Dec-07 22:13N 09°33' W 079°49'416.6
2018-Dec-07 21:58N 09°30' W 079°52'715.0
2018-Dec-07 21:30N 09°24' W 079°55'5 9.6
2018-Dec-07 21:00N 09°19' W 079°55'2 4.1
2018-Dec-07 20:28N 09°17' W 079°55'0 0.4
2018-Dec-07 19:58N 09°16' W 079°55'0 0.3
2018-Dec-07 19:21N 09°16' W 079°55'0 0.5
2018-Dec-07 18:54N 09°16' W 079°55'0 0.2
2018-Dec-07 18:30N 09°16' W 079°55'1 1.7
2018-Dec-07 17:59N 09°15' W 079°55'0 0.0
2018-Dec-07 17:11N 09°15' W 079°55'0 0.2
2018-Dec-07 16:59N 09°15' W 079°55'0 0.1
2018-Dec-07 16:29N 09°15' W 079°55'0 0.9
2018-Dec-07 15:59N 09°16' W 079°55'1 1.2
2018-Dec-07 15:28N 09°16' W 079°55'0 0.4
2018-Dec-07 14:55N 09°16' W 079°55'0 0.4
2018-Dec-07 14:25N 09°17' W 079°55'0 0.4
2018-Dec-07 13:58N 09°17' W 079°55'0 0.9
2018-Dec-07 13:30N 09°17' W 079°55'1 1.7
2018-Dec-07 13:00N 09°18' W 079°55'3 5.6
2018-Dec-07 12:30N 09°21' W 079°55'3 6.2
2018-Dec-07 12:00N 09°24' W 079°55'611.2
2018-Dec-07 11:30N 09°29' W 079°57'611.6
2018-Dec-07 10:59N 09°32' W 080°03'612.1
2018-Dec-07 10:28N 09°33' W 080°09'4418.0
2018-Dec-07 08:00N 09°36' W 080°54'148 6.2 050 / 221011.7 24.019.625.0
2018-Dec-06 08:00N 11°30' W 082°30'42317.6 100 / 251012.9 25.020.724.0
2018-Dec-05 08:00N 18°18' W 084°24'19621.1 090 / 151015.0 25.020.726.0
2018-Dec-04 22:42N 20°23' W 087°04'418.3
2018-Dec-04 22:31N 20°26' W 087°02'4 8.0
2018-Dec-04 22:00N 20°29' W 086°59'0 0.0
2018-Dec-04 21:30N 20°29' W 086°59'0 0.0
2018-Dec-04 21:00N 20°29' W 086°59'0 0.0
2018-Dec-04 20:30N 20°29' W 086°59'0 0.0
2018-Dec-04 20:00N 20°29' W 086°59'0 0.0
2018-Dec-04 19:30N 20°29' W 086°59'0 0.0
2018-Dec-04 19:00N 20°29' W 086°59'0 0.0
2018-Dec-04 18:30N 20°29' W 086°59'0 0.0
2018-Dec-04 18:00N 20°29' W 086°59'0 0.0
2018-Dec-04 17:30N 20°29' W 086°59'0 0.0
2018-Dec-04 17:00N 20°29' W 086°59'0 0.0
2018-Dec-04 16:30N 20°29' W 086°59'0 0.0
2018-Dec-04 16:00N 20°29' W 086°59'0 0.0
2018-Dec-04 15:30N 20°29' W 086°59'0 0.0
2018-Dec-04 15:00N 20°29' W 086°59'0 0.0
2018-Dec-04 14:30N 20°29' W 086°59'0 0.0
2018-Dec-04 14:00N 20°29' W 086°59'0 0.0
2018-Dec-04 13:30N 20°29' W 086°59'0 0.0
2018-Dec-04 13:00N 20°29' W 086°59'0 0.1
2018-Dec-04 12:30N 20°29' W 086°59'2 3.6
2018-Dec-04 12:00N 20°30' W 086°59'4 8.9
2018-Dec-04 11:30N 20°34' W 086°57'3 6.4
2018-Dec-04 11:00N 20°36' W 086°54'2308.3 120 / 151014.5 5.4 26.023.222.0
2018-Dec-04 10:59N 20°38' W 086°54'31513.1
2018-Dec-03 11:00N 25°06' W 083°54'4522.5 150 / 201014.2 5.4 26.023.226.0
2018-Dec-03 09:00N 25°48' W 083°36'142 3.1 180 / 251013.5 25.022.226.0
2018-Dec-01 11:00N 23°48' W 085°00'22318.4 150 / 301012.5 5.4 36.018.822.0
2018-Nov-30 22:53N 20°34' W 086°58'410.2
2018-Nov-30 22:30N 20°30' W 086°59'1 2.6
2018-Nov-30 22:00N 20°29' W 086°59'0 0.0
2018-Nov-30 21:29N 20°29' W 086°59'0 0.0
2018-Nov-30 20:59N 20°29' W 086°59'0 0.0
2018-Nov-30 20:26N 20°29' W 086°59'0 0.0
2018-Nov-30 19:59N 20°29' W 086°59'0 0.0
2018-Nov-30 19:28N 20°29' W 086°59'0 0.0
2018-Nov-30 18:58N 20°29' W 086°59'0 0.0
2018-Nov-30 18:28N 20°29' W 086°59'0 0.0
2018-Nov-30 17:58N 20°29' W 086°59'0 0.0
2018-Nov-30 17:28N 20°29' W 086°59'0 0.0
2018-Nov-30 17:00N 20°29' W 086°59'0 0.0
2018-Nov-30 16:30N 20°29' W 086°59'0 0.0
2018-Nov-30 16:00N 20°29' W 086°59'0 0.0
2018-Nov-30 15:30N 20°29' W 086°59'0 0.0
2018-Nov-30 15:00N 20°29' W 086°59'0 0.0
2018-Nov-30 14:29N 20°29' W 086°59'0 0.0
2018-Nov-30 13:59N 20°29' W 086°59'0 0.0
2018-Nov-30 13:29N 20°29' W 086°59'0 0.0
2018-Nov-30 12:59N 20°29' W 086°59'0 0.1
2018-Nov-30 12:30N 20°29' W 086°59'2 4.5
2018-Nov-30 12:00N 20°30' W 087°01'  

Dump ship's entire track history